createdAt,value
2023-05-21T00:00:34.191Z,14.54
2023-05-21T00:03:42.581Z,14.62
2023-05-21T00:06:47.069Z,14.52
2023-05-21T00:09:51.323Z,14.23
2023-05-21T00:12:55.438Z,14.26
2023-05-21T00:15:59.423Z,14.28
2023-05-21T00:19:04.457Z,14.67
2023-05-21T00:22:09.079Z,15.00
2023-05-21T00:25:13.710Z,15.30
2023-05-21T00:28:17.832Z,15.50
2023-05-21T00:31:22.793Z,15.61
2023-05-21T00:34:27.253Z,15.82
2023-05-21T00:37:35.344Z,15.78
2023-05-21T00:40:42.133Z,16.15
2023-05-21T00:43:47.596Z,16.45
2023-05-21T00:46:54.403Z,16.26
2023-05-21T00:49:58.766Z,16.29
2023-05-21T00:53:03.838Z,16.00
2023-05-21T00:56:08.738Z,16.00
2023-05-21T00:59:12.831Z,16.29
2023-05-21T01:02:19.088Z,16.53
2023-05-21T01:05:23.853Z,16.26
2023-05-21T01:08:29.720Z,16.41
2023-05-21T01:11:44.710Z,16.41
2023-05-21T01:14:49.717Z,16.66
2023-05-21T01:17:54.049Z,16.42
2023-05-21T01:20:58.211Z,16.44
2023-05-21T01:24:06.361Z,16.25
2023-05-21T01:27:11.426Z,16.13
2023-05-21T01:30:17.293Z,15.96
2023-05-21T01:33:30.885Z,15.22
2023-05-21T01:36:42.904Z,15.05
2023-05-21T01:39:56.660Z,15.11
2023-05-21T01:43:01.149Z,15.36
2023-05-21T01:46:06.843Z,15.61
2023-05-21T01:49:12.301Z,15.79
2023-05-21T01:52:16.781Z,15.82
2023-05-21T01:55:26.320Z,15.98
2023-05-21T01:58:30.808Z,16.20
2023-05-21T02:01:36.483Z,16.50
2023-05-21T02:04:42.393Z,16.68
2023-05-21T02:07:47.131Z,16.60
2023-05-21T02:10:52.396Z,16.76
2023-05-21T02:13:58.076Z,17.00
2023-05-21T02:17:02.455Z,17.08
2023-05-21T02:20:17.508Z,17.08
2023-05-21T02:23:22.257Z,17.24
2023-05-21T02:26:26.330Z,17.43
2023-05-21T02:29:30.776Z,17.43
2023-05-21T02:32:35.796Z,17.23
2023-05-21T02:35:39.959Z,17.30
2023-05-21T02:38:44.335Z,17.44
2023-05-21T02:41:48.520Z,17.69
2023-05-21T02:44:53.361Z,18.09
2023-05-21T02:48:18.246Z,17.36
2023-05-21T02:51:24.446Z,17.55
2023-05-21T02:54:28.704Z,17.23
2023-05-21T02:57:33.342Z,17.05
2023-05-21T03:00:40.779Z,17.28
2023-05-21T03:03:47.164Z,17.42
2023-05-21T03:06:56.043Z,17.41
2023-05-21T03:10:03.738Z,17.26
2023-05-21T03:13:09.960Z,16.74
2023-05-21T03:16:15.128Z,17.04
2023-05-21T03:19:20.067Z,16.77
2023-05-21T03:22:24.843Z,16.88
2023-05-21T03:25:29.471Z,16.91
2023-05-21T03:28:35.879Z,16.63
2023-05-21T03:31:42.150Z,16.44
2023-05-21T03:34:48.333Z,16.28
2023-05-21T03:37:54.922Z,16.08
2023-05-21T03:41:01.327Z,15.69
2023-05-21T03:44:09.524Z,15.28
2023-05-21T03:47:33.926Z,14.68
2023-05-21T03:50:39.528Z,14.33
2023-05-21T03:53:44.364Z,14.28
2023-05-21T03:56:48.834Z,14.09
2023-05-21T03:59:55.078Z,14.80
2023-05-21T04:03:03.298Z,14.70
2023-05-21T04:06:14.694Z,14.93
2023-05-21T04:09:24.027Z,15.00
2023-05-21T04:12:29.211Z,15.18
2023-05-21T04:15:39.750Z,15.10
2023-05-21T04:18:47.700Z,15.32
2023-05-21T04:21:53.583Z,15.67
2023-05-21T04:25:00.455Z,15.55
2023-05-21T04:28:11.174Z,15.46
2023-05-21T04:31:15.963Z,15.58
2023-05-21T04:34:23.063Z,15.73
2023-05-21T04:37:28.791Z,15.87
2023-05-21T04:40:36.632Z,16.22
2023-05-21T04:43:45.570Z,16.14
2023-05-21T04:46:57.792Z,16.06
2023-05-21T04:50:03.169Z,16.23
2023-05-21T04:53:08.217Z,16.09
2023-05-21T04:56:13.038Z,16.57
2023-05-21T04:59:18.411Z,16.91
2023-05-21T05:02:24.820Z,16.60
2023-05-21T05:05:29.021Z,16.63
2023-05-21T05:08:33.107Z,16.76
2023-05-21T05:11:37.438Z,16.41
2023-05-21T05:14:51.843Z,16.62
2023-05-21T05:17:57.559Z,16.28
2023-05-21T05:21:02.916Z,16.67
2023-05-21T05:24:08.104Z,16.75
2023-05-21T05:27:15.069Z,16.24
2023-05-21T05:30:22.079Z,16.04
2023-05-21T05:33:29.031Z,15.81
2023-05-21T05:36:34.817Z,15.85
2023-05-21T05:39:40.517Z,15.87
2023-05-21T05:42:45.252Z,15.84
2023-05-21T05:45:55.040Z,15.67
2023-05-21T05:48:59.779Z,15.29
2023-05-21T05:52:04.763Z,15.31
2023-05-21T05:55:09.925Z,15.50
2023-05-21T05:58:16.865Z,15.11
2023-05-21T06:01:32.990Z,15.26
2023-05-21T06:04:38.782Z,15.24
2023-05-21T06:07:43.433Z,15.22
2023-05-21T06:10:47.449Z,14.98
2023-05-21T06:13:53.818Z,14.94
2023-05-21T06:16:58.666Z,15.05
2023-05-21T06:20:06.252Z,15.36
2023-05-21T06:23:12.391Z,15.45
2023-05-21T06:26:19.991Z,14.82
2023-05-21T06:29:25.862Z,15.33
2023-05-21T06:32:31.686Z,15.10
2023-05-21T06:35:37.992Z,14.56
2023-05-21T06:38:43.935Z,14.97
2023-05-21T06:41:49.446Z,15.13
2023-05-21T06:45:20.371Z,15.24
2023-05-21T06:48:28.039Z,15.42
2023-05-21T06:51:32.476Z,15.26
2023-05-21T06:54:37.309Z,14.78
2023-05-21T06:57:44.741Z,14.92
2023-05-21T07:02:19.952Z,14.76
2023-05-21T07:05:01.874Z,15.15
2023-05-21T07:08:11.343Z,14.94
2023-05-21T07:11:23.097Z,14.41
2023-05-21T07:14:32.774Z,14.35
2023-05-21T07:17:42.466Z,14.16
2023-05-21T07:20:57.863Z,13.87
2023-05-21T07:24:05.726Z,14.21
2023-05-21T07:27:25.924Z,14.78
2023-05-21T07:30:32.458Z,15.26
2023-05-21T07:33:45.735Z,14.86
2023-05-21T07:36:56.010Z,15.12
2023-05-21T07:40:00.343Z,15.65
2023-05-21T07:43:09.412Z,15.44
2023-05-21T07:46:20.067Z,15.30
2023-05-21T07:49:27.677Z,14.94
2023-05-21T07:52:32.305Z,14.93
2023-05-21T07:55:43.872Z,14.84
2023-05-21T07:58:51.250Z,14.38
2023-05-21T08:01:58.914Z,14.22
2023-05-21T08:05:13.950Z,13.88
2023-05-21T08:08:19.985Z,14.37
2023-05-21T08:11:25.390Z,14.26
2023-05-21T08:14:30.149Z,14.26
2023-05-21T08:17:34.739Z,13.94
2023-05-21T08:20:39.204Z,14.50
2023-05-21T08:23:45.786Z,14.60
2023-05-21T08:26:51.473Z,14.52
2023-05-21T08:29:56.422Z,14.58
2023-05-21T08:33:01.123Z,14.50
2023-05-21T08:36:11.361Z,14.33
2023-05-21T08:39:23.068Z,14.39
2023-05-21T08:42:36.868Z,14.27
2023-05-21T08:45:47.765Z,14.02
2023-05-21T08:48:57.745Z,13.37
2023-05-21T08:52:03.883Z,13.52
2023-05-21T08:55:09.553Z,13.69
2023-05-21T08:58:16.993Z,13.79
2023-05-21T09:01:24.140Z,13.76
2023-05-21T09:04:37.867Z,13.24
2023-05-21T09:07:54.380Z,13.43
2023-05-21T09:11:09.700Z,13.34
2023-05-21T09:14:25.039Z,13.33
2023-05-21T09:17:39.420Z,13.36
2023-05-21T09:21:30.218Z,13.44
2023-05-21T09:24:46.982Z,13.49
2023-05-21T09:27:52.092Z,13.24
2023-05-21T09:30:57.853Z,13.16
2023-05-21T09:34:02.352Z,13.31
2023-05-21T09:37:23.555Z,13.32
2023-05-21T09:40:32.716Z,13.36
2023-05-21T09:43:38.895Z,13.24
2023-05-21T09:46:43.491Z,13.14
2023-05-21T09:49:47.723Z,13.12
2023-05-21T09:52:56.164Z,13.02
2023-05-21T09:56:01.389Z,13.00
2023-05-21T09:59:05.302Z,12.83
2023-05-21T10:02:27.806Z,12.87
2023-05-21T10:05:32.566Z,12.70
2023-05-21T10:08:38.540Z,12.67
2023-05-21T10:11:45.778Z,12.65
2023-05-21T10:14:55.145Z,12.73
2023-05-21T10:18:00.729Z,12.70
2023-05-21T10:21:09.987Z,12.69
2023-05-21T10:24:14.667Z,12.41
2023-05-21T10:27:19.507Z,12.48
2023-05-21T10:30:25.756Z,12.39
2023-05-21T10:33:30.974Z,12.25
2023-05-21T10:36:38.201Z,12.20
2023-05-21T10:39:44.698Z,12.22
2023-05-21T10:43:19.264Z,12.28
2023-05-21T10:46:26.139Z,12.20
2023-05-21T10:49:44.347Z,12.14
2023-05-21T10:53:17.910Z,12.04
2023-05-21T10:56:26.094Z,11.90
2023-05-21T10:59:48.432Z,11.77
2023-05-21T11:02:53.917Z,11.70
2023-05-21T11:05:58.967Z,11.67
2023-05-21T11:09:22.990Z,11.62
2023-05-21T11:12:28.210Z,11.55
2023-05-21T11:15:32.147Z,11.47
2023-05-21T11:18:39.306Z,11.43
2023-05-21T11:21:43.726Z,11.38
2023-05-21T11:24:50.530Z,11.38
2023-05-21T11:27:55.113Z,11.40
2023-05-21T11:31:24.617Z,11.23
2023-05-21T11:34:38.454Z,11.16
2023-05-21T11:37:44.553Z,11.12
2023-05-21T11:40:55.809Z,11.12
2023-05-21T11:44:03.037Z,10.94
2023-05-21T11:47:08.504Z,10.90
2023-05-21T11:50:17.631Z,10.96
2023-05-21T11:53:22.247Z,10.84
2023-05-21T11:56:32.699Z,10.84
2023-05-21T11:59:38.013Z,10.80
2023-05-21T12:03:02.877Z,10.68
2023-05-21T12:06:07.668Z,10.68
2023-05-21T12:09:12.481Z,10.68
2023-05-21T12:12:22.216Z,10.74
2023-05-21T12:15:29.362Z,10.76
2023-05-21T12:18:34.093Z,10.69
2023-05-21T12:21:39.345Z,10.67
2023-05-21T12:24:49.333Z,10.60
2023-05-21T12:27:59.030Z,10.55
2023-05-21T12:31:09.105Z,10.56
2023-05-21T12:34:15.139Z,10.50
2023-05-21T12:37:23.025Z,10.59
2023-05-21T12:40:46.200Z,10.51
2023-05-21T12:43:53.514Z,10.54
2023-05-21T12:46:58.689Z,10.81
2023-05-21T12:50:03.912Z,10.85
2023-05-21T12:53:15.952Z,10.84
2023-05-21T12:56:20.010Z,10.84
2023-05-21T12:59:23.944Z,10.80
2023-05-21T13:02:42.430Z,10.82
2023-05-21T13:05:49.067Z,10.79
2023-05-21T13:08:56.676Z,10.87
2023-05-21T13:12:07.018Z,10.75
2023-05-21T13:15:11.552Z,10.89
2023-05-21T13:18:17.132Z,10.74
2023-05-21T13:21:23.345Z,10.86
2023-05-21T13:24:37.934Z,10.76
2023-05-21T13:27:48.522Z,10.87
2023-05-21T13:30:57.653Z,10.78
2023-05-21T13:34:02.057Z,10.77
2023-05-21T13:37:09.439Z,10.55
2023-05-21T13:40:19.113Z,10.56
2023-05-21T13:43:26.987Z,10.68
2023-05-21T13:46:31.648Z,10.71
2023-05-21T13:49:37.489Z,10.89
2023-05-21T13:52:47.552Z,10.58
2023-05-21T13:55:53.007Z,10.93
2023-05-21T13:58:59.094Z,10.83
2023-05-21T14:02:05.805Z,10.71
2023-05-21T14:05:27.311Z,10.84
2023-05-21T14:08:34.302Z,10.76
2023-05-21T14:11:50.713Z,10.64
2023-05-21T14:14:54.825Z,10.67
2023-05-21T14:18:04.811Z,10.68
2023-05-21T14:21:11.443Z,10.44
2023-05-21T14:24:24.366Z,10.70
2023-05-21T14:27:28.977Z,10.69
2023-05-21T14:30:34.848Z,10.70
2023-05-21T14:33:46.694Z,10.63
2023-05-21T14:36:56.768Z,10.54
2023-05-21T14:40:02.317Z,10.70
2023-05-21T14:43:09.600Z,10.55
2023-05-21T14:46:16.803Z,10.65
2023-05-21T14:49:21.512Z,10.58
2023-05-21T14:52:39.870Z,10.53
2023-05-21T14:55:46.877Z,10.66
2023-05-21T14:58:51.041Z,10.54
2023-05-21T15:01:57.703Z,10.65
2023-05-21T15:05:05.046Z,10.60
2023-05-21T15:08:10.617Z,10.56
2023-05-21T15:11:16.731Z,10.62
2023-05-21T15:14:21.822Z,10.74
2023-05-21T15:17:31.705Z,10.65
2023-05-21T15:20:36.015Z,10.57
2023-05-21T15:23:45.896Z,10.42
2023-05-21T15:26:53.357Z,10.46
2023-05-21T15:29:57.845Z,10.49
2023-05-21T15:33:02.449Z,10.33
2023-05-21T15:36:06.741Z,10.24
2023-05-21T15:39:10.748Z,10.40
2023-05-21T15:42:15.128Z,10.07
2023-05-21T15:45:19.520Z,10.29
2023-05-21T15:48:23.929Z,10.30
2023-05-21T15:51:27.970Z,10.18
2023-05-21T15:54:32.301Z,10.07
2023-05-21T15:57:36.344Z,10.14
2023-05-21T16:00:41.945Z,9.88
2023-05-21T16:03:49.000Z,10.12
2023-05-21T16:06:53.453Z,9.96
2023-05-21T16:09:58.073Z,10.05
2023-05-21T16:13:02.317Z,9.84
2023-05-21T16:16:06.790Z,9.77
2023-05-21T16:19:14.731Z,9.72
2023-05-21T16:22:18.708Z,9.75
2023-05-21T16:25:22.717Z,9.75
2023-05-21T16:28:27.449Z,9.74
2023-05-21T16:31:31.929Z,9.44
2023-05-21T16:34:37.010Z,9.44
2023-05-21T16:37:41.682Z,9.67
2023-05-21T16:40:46.569Z,9.61
2023-05-21T16:43:50.676Z,9.53
2023-05-21T16:46:54.840Z,9.69
2023-05-21T16:49:59.289Z,9.74
2023-05-21T16:53:03.822Z,9.73
2023-05-21T16:56:07.892Z,9.78
2023-05-21T16:59:11.960Z,9.67
2023-05-21T17:02:15.910Z,9.56
2023-05-21T17:05:20.086Z,9.60
2023-05-21T17:08:24.602Z,9.58
2023-05-21T17:11:28.800Z,9.32
2023-05-21T17:14:34.625Z,9.45
2023-05-21T17:17:39.065Z,9.43
2023-05-21T17:20:44.587Z,9.31
2023-05-21T17:23:48.597Z,9.33
2023-05-21T17:26:54.056Z,9.32
2023-05-21T17:29:58.458Z,9.53
2023-05-21T17:33:05.418Z,9.47
2023-05-21T17:36:09.349Z,9.27
2023-05-21T17:39:13.257Z,9.48
2023-05-21T17:42:18.542Z,9.58
2023-05-21T17:45:22.686Z,9.67
2023-05-21T17:48:26.967Z,9.51
2023-05-21T17:51:32.348Z,9.37
2023-05-21T17:54:36.414Z,9.47
2023-05-21T17:57:40.353Z,9.53
2023-05-21T18:00:44.346Z,9.50
2023-05-21T18:03:48.604Z,9.39
2023-05-21T18:06:52.648Z,9.36
2023-05-21T18:09:57.099Z,9.35
2023-05-21T18:13:01.627Z,9.52
2023-05-21T18:16:06.337Z,9.68
2023-05-21T18:19:10.558Z,9.70
2023-05-21T18:22:14.613Z,9.76
2023-05-21T18:25:19.221Z,9.67
2023-05-21T18:28:23.766Z,9.75
2023-05-21T18:31:27.997Z,9.78
2023-05-21T18:34:32.439Z,9.19
2023-05-21T18:37:38.168Z,9.79
2023-05-21T18:40:45.408Z,9.82
2023-05-21T18:43:49.416Z,9.90
2023-05-21T18:46:54.351Z,9.78
2023-05-21T18:49:58.844Z,9.67
2023-05-21T18:53:02.723Z,9.85
2023-05-21T18:56:08.258Z,9.87
2023-05-21T18:59:12.290Z,9.74
2023-05-21T19:02:16.321Z,9.84
2023-05-21T19:05:20.678Z,9.66
2023-05-21T19:08:24.569Z,9.52
2023-05-21T19:11:33.496Z,9.60
2023-05-21T19:14:37.668Z,9.52
2023-05-21T19:17:41.990Z,9.63
2023-05-21T19:20:48.369Z,9.65
2023-05-21T19:23:54.537Z,9.70
2023-05-21T19:26:58.522Z,9.79
2023-05-21T19:30:02.484Z,9.63
2023-05-21T19:33:10.585Z,9.68
2023-05-21T19:36:15.400Z,9.62
2023-05-21T19:39:19.990Z,9.51
2023-05-21T19:42:24.566Z,9.62
2023-05-21T19:45:28.630Z,9.55
2023-05-21T19:48:32.552Z,9.47
2023-05-21T19:51:36.742Z,9.64
2023-05-21T19:54:40.801Z,9.66
2023-05-21T19:57:44.777Z,9.56
2023-05-21T20:00:49.447Z,9.80
2023-05-21T20:03:53.471Z,9.95
2023-05-21T20:06:57.546Z,9.67
2023-05-21T20:10:01.644Z,9.78
2023-05-21T20:13:09.605Z,9.89
2023-05-21T20:16:13.656Z,9.94
2023-05-21T20:19:17.710Z,9.80
2023-05-21T20:22:22.604Z,9.87
2023-05-21T20:25:26.721Z,9.65
2023-05-21T20:28:30.762Z,9.84
2023-05-21T20:31:35.154Z,9.85
2023-05-21T20:34:47.254Z,9.37
2023-05-21T20:38:17.933Z,9.82
2023-05-21T20:41:51.246Z,9.77
2023-05-21T20:44:59.990Z,9.96
2023-05-21T20:48:04.168Z,9.90
2023-05-21T20:51:08.877Z,9.84
2023-05-21T20:54:12.924Z,9.94
2023-05-21T20:57:17.435Z,9.97
2023-05-21T21:00:21.806Z,10.03
2023-05-21T21:03:26.466Z,9.93
2023-05-21T21:06:32.470Z,9.99
2023-05-21T21:09:37.292Z,10.13
2023-05-21T21:12:41.283Z,10.26
2023-05-21T21:15:45.335Z,10.32
2023-05-21T21:18:49.206Z,10.13
2023-05-21T21:21:53.603Z,10.49
2023-05-21T21:24:57.580Z,10.33
2023-05-21T21:28:02.573Z,10.37
2023-05-21T21:31:06.703Z,10.44
2023-05-21T21:34:12.851Z,10.46
2023-05-21T21:37:19.500Z,10.59
2023-05-21T21:40:23.676Z,10.66
2023-05-21T21:43:28.026Z,9.91
2023-05-21T21:46:32.325Z,10.69
2023-05-21T21:49:36.826Z,10.87
2023-05-21T21:52:41.343Z,10.62
2023-05-21T21:55:45.255Z,10.62
2023-05-21T21:58:49.209Z,10.52
2023-05-21T22:01:53.231Z,10.84
2023-05-21T22:04:57.316Z,11.02
2023-05-21T22:08:01.377Z,11.08
2023-05-21T22:11:05.505Z,11.14
2023-05-21T22:14:09.409Z,11.24
2023-05-21T22:17:14.749Z,11.76
2023-05-21T22:20:19.234Z,12.54
2023-05-21T22:23:23.124Z,14.10
2023-05-21T22:26:27.436Z,13.18
2023-05-21T22:29:31.748Z,12.93
2023-05-21T22:32:35.778Z,12.46
2023-05-21T22:35:39.898Z,12.34
2023-05-21T22:38:44.664Z,12.31
2023-05-21T22:41:48.550Z,12.49
2023-05-21T22:44:53.144Z,12.55
2023-05-21T22:48:02.482Z,14.66
2023-05-21T22:51:08.743Z,14.04
2023-05-21T22:54:12.894Z,13.65
2023-05-21T22:57:17.075Z,14.02
2023-05-21T23:00:21.215Z,13.60
2023-05-21T23:03:25.226Z,13.43
2023-05-21T23:06:29.324Z,13.30
2023-05-21T23:09:33.413Z,12.81
2023-05-21T23:12:38.257Z,13.51
2023-05-21T23:15:44.400Z,13.54
2023-05-21T23:18:49.528Z,15.01
2023-05-21T23:21:53.493Z,16.35
2023-05-21T23:24:57.608Z,16.59
2023-05-21T23:28:02.094Z,15.65
2023-05-21T23:31:07.000Z,16.05
2023-05-21T23:34:11.015Z,17.09
2023-05-21T23:37:15.337Z,17.35
2023-05-21T23:40:19.481Z,19.00
2023-05-21T23:43:24.640Z,21.19
2023-05-21T23:46:29.178Z,22.34
2023-05-21T23:49:33.644Z,21.49
2023-05-21T23:52:38.374Z,22.43
2023-05-21T23:55:42.750Z,21.89
2023-05-21T23:58:46.754Z,21.73
